Weather observations for the past three days for
Putnam County Regional Airport
Metric (Imperial)
Date Time (edt) Wind (kph) Vis. (km) Weather Sky Cond. Temperature (ºC) Relative Humidity Wind Chill (°C) Heat Index (°C) Pressure Precipitation (cm)
Air Dwpt 6 hour altimeter (cm) sea level (mb) 1 hr 3 hr 6 hr
Max. Min.
06 08:15 NE 7 16.09 Fair CLR 19 17 88% 76.28 0.0
06 07:55 NE 7 16.09 Fair CLR 18 17 94% 76.28 0.0
06 07:35 NE 7 16.09 Fair CLR 18 16 88% 76.25 0.0
06 07:15 NE 7 16.09 Fair CLR 18 17 94% 76.23 0.0
06 06:55 NE 9 16.09 Fair CLR 18 17 94% 76.23 0.0
06 06:35 NE 9 16.09 Fair CLR 19 17 88% 76.2 0.0
06 06:15 NE 9 16.09 Fair CLR 19 18 94% 76.2 0.0
06 05:55 NE 11 16.09 Fair CLR 20 18 88% 76.2 0.0
06 05:35 NE 13 16.09 Partly Cloudy SCT048 21 19 88% 76.17 0.0
06 05:15 NE 17 16.09 Overcast SCT012 OVC048 21 20 94% 76.17 0.0
06 04:55 NE 13 16.09 Overcast OVC012 22 21 94% 76.15 0.0
06 04:35 N 11 11.27 Mostly Cloudy BKN010 21 21 100% 76.15 0.0
06 04:15 NE 9 16.09 Mostly Cloudy BKN012 22 21 94% 76.15 0.0
06 03:55 NE 9 11.27 Fair CLR 22 21 94% 76.12 0.0
06 03:35 NE 11 11.27 Partly Cloudy SCT047 22 22 100% 76.12 0.0
06 03:15 N 9 16.09 Partly Cloudy SCT047 22 22 100% 76.12 0.0
06 02:55 NE 7 16.09 Fair CLR 22 22 100% 76.15 0.0
06 02:35 NE 7 16.09 Fair CLR 22 22 100% 76.15 0.0
06 02:15 NE 7 16.09 Fair CLR 22 22 100% 76.15 0.0
06 01:55 NE 7 16.09 Fair CLR 22 22 100% 76.15 0.0
06 01:35 N 6 16.09 Fair CLR 22 22 100% 76.15 0.0
06 01:15 N 6 16.09 Fair CLR 22 22 100% 76.12 0.0
06 00:55 N 9 16.09 Partly Cloudy SCT034 SCT042 23 22 94% 76.12 0.0
06 00:35 N 11 16.09 Mostly Cloudy SCT034 BKN042 23 22 94% 76.1 0.0
06 00:15 N 11 16.09 Partly Cloudy SCT034 SCT040 23 22 94% 76.1 0.0
05 23:55 N 11 16.09 Mostly Cloudy BKN030 BKN038 23 22 94% 76.1 0.0
05 23:35 N 13 16.09 Fair CLR 23 22 94% 76.1 0.0
05 23:15 N 15 16.09 Fair CLR 24 22 89% 24 76.1 0.0
05 22:55 N 17 16.09 Fair CLR 24 22 89% 24 76.1 0.0
05 22:35 N 13 16.09 Fair CLR 25 23 89% 26 76.07 0.0
05 22:15 N 17 16.09 Fair CLR 25 23 89% 26 76.05 0.0
05 21:55 N 15 16.09 Fair CLR 26 23 84% 28 76.02 0.0
05 21:35 N 19 16.09 Partly Cloudy SCT043 SCT049 26 23 84% 28 76.02 0.0
05 21:15 N 19 16.09 Partly Cloudy SCT041 SCT049 26 24 89% 28 76.02 0.0
05 20:55 N 13 16.09 Fair CLR 26 24 89% 28 76 0.0
05 20:35 N 11 16.09 Fair CLR 26 24 89% 28 75.97 0.0
05 20:15 N 7 16.09 Fair CLR 26 24 89% 28 75.97 0.0
05 19:55 N 7 16.09 Fair CLR 27 24 84% 30 75.97 0.0
05 19:35 N 7 16.09 Partly Cloudy SCT042 27 24 84% 30 75.95 0.0
05 19:15 NE 11 16.09 Partly Cloudy SCT042 29 25 79% 35 75.95 0.0
05 18:55 N 6 16.09 Partly Cloudy SCT048 SCT070 SCT120 29 25 79% 35 75.92 0.0 0.08
05 18:35 N 9 16.09 Light Rain SCT044 SCT065 BKN120 31 25 70% 38 75.92 0.0
05 18:15 N 15 16.09 Fair CLR 33 24 59% 39 75.92 0.0
05 17:55 N 15 11.27 Thunderstorm CLR 33 24 59% 39 75.95 0.0
05 17:35 NW 11 16.09 Fair CLR 33 24 59% 39 75.95 0.0
05 17:15 NW 9 16.09 Fair CLR 33 24 59% 39 75.95 0.0
05 16:55 W 13 16.09 Fair CLR 33 24 59% 39 75.95 0.0
05 16:35 W 7 16.09 Fair CLR 31 24 66% 37 75.97 0.0
05 16:15 NW 15 16.09 Fair CLR 31 24 66% 37 75.97 0.0
05 15:55 NW 11 16.09 Fair CLR 32 23 59% 37 76 0.0
05 13:55 SW 11 16.09 Fair CLR 31 23 62% 35 76.1 0.0
05 13:35 S 9 16.09 Fair CLR 31 23 62% 35 76.1 0.0
05 13:15 S 13 16.09 Fair CLR 30 22 62% 33 76.12 0.0
05 12:55 S 11 16.09 Fair CLR 30 22 62% 33 76.15 0.0
05 12:35 S 15 16.09 Fair CLR 30 21 59% 33 76.12 0.0
05 12:15 S 15 16.09 Fair CLR 29 21 62% 31 76.15 0.0
05 11:55 S 19 16.09 Fair CLR 28 20 62% 30 76.15 0.0
05 11:35 S 17 16.09 Fair CLR 28 21 66% 30 76.15 0.0
05 11:15 S 11 16.09 Fair CLR 27 21 70% 29 76.17 0.0
05 10:55 SE 11 16.09 Fair CLR 25 21 79% 26 76.17 0.0
05 10:35 SE 19 16.09 Fair CLR 24 21 83% 24 76.17 0.0
05 10:15 E 11 16.09 Partly Cloudy SCT007 SCT017 SCT120 22 21 94% 76.17 0.0
05 09:55 SE 28 6.44 Light Rain Fog/Mist SCT012 SCT032 BKN060 22 20 88% 76.15 0.0 1.45
05 09:35 E 9 G 52 2.41 Thunderstorm Heavy Rain SCT009 BKN027 OVC055 25 20 74% 26 76.2 0.0 0.76
05 09:15 E 22 G 30 16.09 Thunderstorm BKN055 BKN110 25 20 74% 26 76.2 0.0
05 08:55 SE 20 16.09 Overcast BKN055 BKN075 OVC110 25 23 89% 26 76.17 0.0
05 08:35 E 15 16.09 Overcast BKN055 OVC100 24 23 94% 23 76.15 0.0
05 08:15 S 6 16.09 Mostly Cloudy SCT055 BKN100 23 23 100% 76.12 0.0
05 07:55 S 6 16.09 Partly Cloudy SCT090 23 22 94% 76.1 0.0
05 07:35 S 9 16.09 Fair CLR 23 22 94% 76.07 0.0
05 07:15 SE 7 16.09 Fair CLR 23 22 94% 76.07 0.0
05 06:55 NW 7 16.09 Fair CLR 23 23 100% 76.07 0.0
05 06:35 Calm 16.09 Partly Cloudy SCT070 SCT090 23 23 100% 76.05 0.0
05 06:15 Calm 16.09 Mostly Cloudy SCT080 BKN090 23 23 100% 76.05 0.0
05 05:55 Calm 16.09 Mostly Cloudy BKN080 BKN090 23 23 100% 76.07 0.0
05 05:35 Calm 16.09 Partly Cloudy SCT080 23 23 100% 76.07 0.0
05 05:15 Calm 16.09 Fair CLR 25 22 83% 26 76.05 0.0
05 04:35 SW 7 16.09 Fair CLR 26 23 84% 28 76.02 0.0
05 04:15 SW 9 16.09 Fair CLR 26 23 84% 28 76.02 0.0
05 03:55 SW 9 16.09 Fair CLR 26 23 84% 28 76.02 0.0
05 03:35 SW 11 16.09 Fair CLR 26 23 84% 28 76.02 0.0
05 03:15 SW 7 16.09 Fair CLR 25 23 89% 26 76.02 0.0
05 02:55 SW 7 16.09 Fair CLR 24 24 100% 23 76.02 0.0
05 02:35 S 6 16.09 Fair CLR 24 24 100% 23 76.05 0.0
05 02:15 Calm 16.09 Fair CLR 24 24 100% 23 76.07 0.0
05 01:55 Calm 16.09 Fair CLR 25 24 94% 26 76.1 0.0
05 01:35 S 6 16.09 Fair CLR 25 24 94% 26 76.1 0.0
05 01:15 S 6 16.09 Fair CLR 25 24 94% 26 76.1 0.0
05 00:55 S 7 16.09 Fair CLR 24 24 100% 23 76.1 0.0
05 00:35 Calm 16.09 Fair CLR 25 24 94% 26 76.12 0.0
05 00:15 SE 7 16.09 Fair CLR 24 24 100% 23 76.12 0.0
04 23:55 SW 6 16.09 Fair CLR 25 24 94% 26 76.12 0.0
04 23:35 Calm 16.09 Fair CLR 26 25 94% 28 76.12 0.0
04 23:15 Calm 16.09 Fair CLR 26 25 94% 28 76.12 0.0
04 22:55 Calm 16.09 Fair CLR 25 25 100% 25 76.12 0.0
04 22:35 Calm 16.09 Fair CLR 27 25 89% 31 76.1 0.0
04 22:15 Calm 16.09 Fair CLR 27 25 89% 31 76.1 0.0
04 21:55 Calm 16.09 Fair CLR 27 25 89% 31 76.1 0.0
04 21:35 Calm 16.09 Fair CLR 27 25 89% 31 76.1 0.0
04 21:15 Calm 16.09 Fair CLR 27 25 89% 31 76.1 0.0
04 20:55 Calm 16.09 Fair CLR 27 25 89% 31 76.1 0.0
04 20:35 Calm 16.09 Fair CLR 29 25 79% 35 76.05 0.0
04 20:15 Calm 16.09 Fair CLR 31 24 66% 37 76.05 0.0
04 19:55 Calm 16.09 Fair CLR 31 25 70% 38 76.05 0.0
04 19:35 Calm 16.09 Fair CLR 32 25 67% 39 76.05 0.0
04 19:15 SW 6 16.09 Fair CLR 32 24 63% 38 76.05 0.0
04 18:55 SW 6 16.09 Fair CLR 33 24 59% 39 76.05 0.0
04 18:35 SW 7 16.09 Fair CLR 33 24 59% 39 76.05 0.0
04 18:15 SW 11 16.09 Fair CLR 34 24 56% 41 76.05 0.0
04 17:55 SW 11 16.09 Fair CLR 34 24 56% 41 76.05 0.0
04 17:35 SW 11 16.09 Fair CLR 34 23 53% 39 76.05 0.0
04 17:15 SW 13 16.09 Fair CLR 34 23 53% 39 76.07 0.0
04 16:55 W 9 16.09 Fair CLR 34 23 53% 39 76.1 0.0
04 16:35 W 7 16.09 Fair CLR 34 23 53% 39 76.1 0.0
04 16:15 W 17 16.09 Fair CLR 34 23 53% 39 76.12 0.0
04 15:55 W 7 16.09 Fair CLR 34 23 53% 39 76.15 0.0
04 15:35 W 7 16.09 Fair CLR 34 23 53% 39 76.17 0.0
04 15:15 W 15 16.09 Fair CLR 34 24 56% 41 76.2 0.0
04 14:55 NW 15 16.09 Fair CLR 34 23 53% 39 76.23 0.0
04 14:35 SW 13 16.09 Fair CLR 34 23 53% 39 76.23 0.0
04 14:15 SW 11 16.09 Fair CLR 34 24 56% 41 76.25 0.0
04 13:55 NW 17 16.09 Fair CLR 34 23 53% 39 76.25 0.0
04 13:35 W 11 16.09 Fair CLR 34 23 53% 39 76.28 0.0
04 13:15 W 15 16.09 Fair CLR 33 23 56% 38 76.3 0.0
04 12:55 W 13 16.09 Fair CLR 33 23 56% 38 76.3 0.0
04 12:35 W 19 16.09 Fair CLR 33 23 56% 38 76.3 0.0
04 12:15 W 11 16.09 Fair CLR 33 23 56% 38 76.3 0.0
04 11:55 W 15 16.09 Fair CLR 32 23 59% 37 76.3 0.0
04 11:35 SW 9 16.09 Fair CLR 32 23 59% 37 76.3 0.0
04 11:15 SW 9 16.09 Fair CLR 31 23 62% 35 76.28 0.0
04 10:55 W 11 16.09 Fair CLR 31 24 66% 37 76.28 0.0
04 10:35 SW 9 16.09 Fair CLR 30 23 66% 34 76.28 0.0
04 10:15 SW 11 16.09 Fair CLR 30 23 66% 34 76.25 0.0
04 09:55 SW 13 16.09 Fair CLR 28 23 74% 31 76.25 0.0
04 09:35 SW 11 16.09 Fair CLR 28 23 74% 31 76.28 0.0
04 09:15 SW 9 16.09 Fair CLR 27 23 79% 30 76.28 0.0
04 08:55 SW 6 16.09 Fair CLR 26 23 84% 28 76.28 0.0
04 08:35 SW 6 16.09 Fair CLR 26 22 79% 28 76.28 0.0
04 08:15 Calm 16.09 Fair CLR 25 22 83% 26 76.25 0.0
04 07:55 SW 9 16.09 Fair CLR 24 22 89% 24 76.2 0.0
04 07:35 SW 9 16.09 Fair CLR 24 22 89% 24 76.2 0.0
04 07:15 SW 11 16.09 Fair CLR 24 22 89% 24 76.2 0.0
04 06:55 SW 11 16.09 Fair CLR 24 22 89% 24 76.17 0.0
04 06:35 SW 9 16.09 Fair CLR 24 22 89% 24 76.2 0.0
04 06:15 SW 9 16.09 Fair CLR 24 22 89% 24 76.2 0.0
04 05:55 SW 7 16.09 Fair CLR 23 22 94% 76.2 0.0
04 05:35 SW 7 16.09 Fair CLR 24 23 94% 23 76.17 0.0
04 05:15 SW 7 16.09 Fair CLR 24 22 89% 24 76.17 0.0
04 04:55 SW 9 16.09 Fair CLR 23 22 94% 76.17 0.0
04 04:35 S 9 16.09 Fair CLR 24 23 94% 23 76.17 0.0
04 04:15 S 7 16.09 Fair CLR 24 23 94% 23 76.17 0.0
04 03:55 S 9 16.09 Partly Cloudy SCT100 24 23 94% 23 76.17 0.0
04 03:35 S 7 16.09 Partly Cloudy SCT100 24 23 94% 23 76.17 0.0
04 03:15 S 6 16.09 Partly Cloudy SCT100 24 23 94% 23 76.2 0.0
04 02:55 S 6 16.09 Partly Cloudy SCT100 24 24 100% 23 76.2 0.0
04 02:35 S 6 16.09 Fair CLR 24 23 94% 23 76.2 0.0
04 02:15 S 6 16.09 Partly Cloudy SCT070 25 23 89% 26 76.2 0.0
04 01:55 S 6 16.09 Partly Cloudy SCT070 SCT080 25 23 89% 26 76.23 0.0
04 01:35 Calm 16.09 Fair CLR 26 23 84% 28 76.23 0.0
04 01:15 Calm 16.09 Fair CLR 26 24 89% 28 76.2 0.0
04 00:55 Calm 16.09 Fair CLR 26 24 89% 28 76.2 0.0
04 00:35 Calm 16.09 Fair CLR 26 24 89% 28 76.2 0.0
04 00:15 S 7 16.09 Partly Cloudy SCT070 26 24 89% 28 76.2 0.0
03 23:55 S 6 16.09 Partly Cloudy SCT070 SCT080 26 24 89% 28 76.2 0.0
03 23:35 Calm 16.09 Partly Cloudy SCT070 SCT080 26 24 89% 28 76.17 0.0
03 23:15 SE 6 16.09 Partly Cloudy SCT080 26 24 89% 28 76.2 0.0
03 22:55 E 7 16.09 Mostly Cloudy SCT070 BKN080 27 24 84% 30 76.2 0.0
03 22:35 Calm 16.09 Partly Cloudy SCT070 27 24 84% 30 76.2 0.0
03 22:15 E 6 16.09 Fair CLR 27 24 84% 30 76.2 0.0
03 21:55 E 6 16.09 Fair CLR 27 25 89% 31 76.2 0.0
03 21:35 SE 6 16.09 Fair CLR 27 25 89% 31 76.17 0.0
03 21:15 E 7 16.09 Fair CLR 28 25 84% 33 76.17 0.0
03 20:55 SE 6 16.09 Fair CLR 27 25 89% 31 76.15 0.0
03 20:35 Calm 16.09 Fair CLR 28 25 84% 33 76.15 0.0
03 20:15 Calm 16.09 Fair CLR 31 24 66% 37 76.12 0.0
03 19:55 Calm 16.09 Fair CLR 31 25 70% 38 76.12 0.0
03 19:35 Calm 16.09 Fair CLR 32 25 67% 39 76.12 0.0
03 19:15 Calm 16.09 Fair CLR 33 23 56% 38 76.12 0.0
03 18:55 Calm 16.09 Fair CLR 33 24 59% 39 76.12 0.0
03 18:35 SW 6 16.09 Fair CLR 33 23 56% 38 76.12 0.0
03 18:15 SW 7 16.09 Partly Cloudy SCT050 33 23 56% 38 76.12 0.0
03 17:55 SW 11 16.09 Mostly Cloudy BKN050 BKN060 34 23 53% 39 76.12 0.0
03 17:35 SW 9 16.09 Partly Cloudy SCT050 34 24 56% 41 76.12 0.0
03 17:15 SW 9 16.09 Partly Cloudy SCT050 SCT065 33 23 56% 38 76.12 0.0
03 16:55 S 13 16.09 Partly Cloudy SCT050 SCT095 SCT120 34 23 53% 39 76.15 0.0
03 16:35 SW 9 16.09 Mostly Cloudy BKN050 BKN060 34 23 53% 39 76.15 0.0
03 16:15 SW 15 16.09 Mostly Cloudy SCT050 BKN060 BKN075 34 23 53% 39 76.17 0.0
03 15:55 SW 7 16.09 Mostly Cloudy BKN050 BKN060 34 23 53% 39 76.2 0.0
03 15:35 SW 11 16.09 Partly Cloudy SCT050 33 23 56% 38 76.2 0.0
03 15:15 SW 9 16.09 Fair CLR 34 23 53% 39 76.23 0.0
03 14:55 W 15 16.09 Fair CLR 34 23 53% 39 76.23 0.0
03 14:35 W 13 16.09 Fair CLR 34 24 56% 41 76.23 0.0
03 14:15 W 13 16.09 Fair CLR 33 23 56% 38 76.25 0.0
03 13:55 SW 13 16.09 Fair CLR 33 23 56% 38 76.25 0.0
03 13:35 SW 17 16.09 Fair CLR 33 23 56% 38 76.25 0.0
03 13:15 SW 17 16.09 Fair CLR 33 23 56% 38 76.28 0.0
03 12:55 W 13 16.09 Fair CLR 33 23 56% 38 76.28 0.0
03 12:35 SW 13 16.09 Fair CLR 32 23 59% 37 76.3 0.0
03 12:15 SW 13 16.09 Fair CLR 32 24 63% 38 76.3 0.0
03 11:55 SW 11 16.09 Fair CLR 32 23 59% 37 76.3 0.0
03 11:35 SW 13 16.09 Fair CLR 31 23 62% 35 76.3 0.0
03 11:15 SW 13 16.09 Fair CLR 30 23 66% 34 76.3 0.0
03 10:55 SW 13 16.09 Fair CLR 30 23 66% 34 76.3 0.0
03 10:35 SW 15 16.09 Fair CLR 29 23 70% 33 76.3 0.0
03 10:15 SW 15 16.09 Fair CLR 29 22 66% 32 76.3 0.0
03 09:55 SW 13 16.09 Fair CLR 28 22 70% 31 76.3 0.0
03 09:35 SW 11 16.09 Fair CLR 28 22 70% 31 76.3 0.0
03 09:15 SW 11 16.09 Fair CLR 27 22 74% 29 76.33 0.0
03 08:55 S 11 16.09 Fair CLR 26 23 84% 28 76.33 0.0
Date Time (edt) Wind (kph) Vis. (km) Weather Sky Cond. Air Dwpt Max. Min. Relative Humidity Wind Chill (°C) Heat Index (°C) altimeter (cm) sea level (mb) 1 hr 3 hr 6 hr
6 hour
Temperature (ºC) Pressure Precipitation (cm)